sensor_id;sensor_type;location;lat;lon;timestamp;P1;durP1;ratioP1;P2;durP2;ratioP2
64291;SDS011;50628;51.008;13.658;2023-08-17T00:04:24;12.68;;;11.48;;
64291;SDS011;50628;51.008;13.658;2023-08-17T00:09:27;16.75;;;11.88;;
64291;SDS011;50628;51.008;13.658;2023-08-17T00:14:29;15.88;;;12.32;;
64291;SDS011;50628;51.008;13.658;2023-08-17T00:19:31;14.45;;;11.77;;
64291;SDS011;50628;51.008;13.658;2023-08-17T00:24:34;12.68;;;11.57;;
64291;SDS011;50628;51.008;13.658;2023-08-17T00:29:36;12.30;;;11.10;;
64291;SDS011;50628;51.008;13.658;2023-08-17T00:34:38;13.02;;;11.73;;
64291;SDS011;50628;51.008;13.658;2023-08-17T00:39:42;12.32;;;11.15;;
64291;SDS011;50628;51.008;13.658;2023-08-17T00:44:43;14.50;;;13.07;;
64291;SDS011;50628;51.008;13.658;2023-08-17T00:49:45;14.57;;;13.10;;
64291;SDS011;50628;51.008;13.658;2023-08-17T00:54:49;13.60;;;11.77;;
64291;SDS011;50628;51.008;13.658;2023-08-17T00:59:51;13.05;;;11.75;;
64291;SDS011;50628;51.008;13.658;2023-08-17T01:04:53;12.30;;;11.20;;
64291;SDS011;50628;51.008;13.658;2023-08-17T01:09:56;14.40;;;10.75;;
64291;SDS011;50628;51.008;13.658;2023-08-17T01:15:00;15.98;;;10.52;;
64291;SDS011;50628;51.008;13.658;2023-08-17T01:20:10;12.07;;;10.05;;
64291;SDS011;50628;51.008;13.658;2023-08-17T01:25:15;12.40;;;11.13;;
64291;SDS011;50628;51.008;13.658;2023-08-17T01:30:17;12.07;;;10.88;;
64291;SDS011;50628;51.008;13.658;2023-08-17T01:35:21;15.50;;;10.95;;
64291;SDS011;50628;51.008;13.658;2023-08-17T01:40:30;12.07;;;10.95;;
64291;SDS011;50628;51.008;13.658;2023-08-17T01:45:34;11.73;;;10.65;;
64291;SDS011;50628;51.008;13.658;2023-08-17T01:50:35;14.73;;;10.45;;
64291;SDS011;50628;51.008;13.658;2023-08-17T01:55:39;13.15;;;11.82;;
64291;SDS011;50628;51.008;13.658;2023-08-17T02:00:41;11.88;;;9.50;;
64291;SDS011;50628;51.008;13.658;2023-08-17T02:05:44;12.07;;;10.85;;
64291;SDS011;50628;51.008;13.658;2023-08-17T02:10:49;12.30;;;11.02;;
64291;SDS011;50628;51.008;13.658;2023-08-17T02:15:51;14.65;;;13.10;;
64291;SDS011;50628;51.008;13.658;2023-08-17T02:20:53;12.00;;;10.90;;
64291;SDS011;50628;51.008;13.658;2023-08-17T02:25:56;12.73;;;11.45;;
64291;SDS011;50628;51.008;13.658;2023-08-17T02:30:58;12.65;;;11.45;;
64291;SDS011;50628;51.008;13.658;2023-08-17T02:36:02;13.68;;;11.77;;
64291;SDS011;50628;51.008;13.658;2023-08-17T02:41:05;15.15;;;12.60;;
64291;SDS011;50628;51.008;13.658;2023-08-17T02:46:07;15.45;;;12.45;;
64291;SDS011;50628;51.008;13.658;2023-08-17T02:51:11;13.20;;;11.27;;
64291;SDS011;50628;51.008;13.658;2023-08-17T02:56:14;11.63;;;10.45;;
64291;SDS011;50628;51.008;13.658;2023-08-17T03:01:16;14.95;;;12.50;;
64291;SDS011;50628;51.008;13.658;2023-08-17T03:06:18;13.15;;;11.75;;
64291;SDS011;50628;51.008;13.658;2023-08-17T03:11:21;14.30;;;12.40;;
64291;SDS011;50628;51.008;13.658;2023-08-17T03:16:23;16.38;;;12.45;;
64291;SDS011;50628;51.008;13.658;2023-08-17T03:21:25;13.10;;;11.65;;
64291;SDS011;50628;51.008;13.658;2023-08-17T03:26:28;17.42;;;11.65;;
64291;SDS011;50628;51.008;13.658;2023-08-17T03:31:30;15.20;;;12.23;;
64291;SDS011;50628;51.008;13.658;2023-08-17T03:36:32;21.70;;;14.20;;
64291;SDS011;50628;51.008;13.658;2023-08-17T03:41:36;14.02;;;12.07;;
64291;SDS011;50628;51.008;13.658;2023-08-17T03:46:38;14.73;;;12.65;;
64291;SDS011;50628;51.008;13.658;2023-08-17T03:51:40;14.07;;;12.43;;
64291;SDS011;50628;51.008;13.658;2023-08-17T03:56:43;17.55;;;13.27;;
64291;SDS011;50628;51.008;13.658;2023-08-17T04:01:45;13.13;;;11.65;;
64291;SDS011;50628;51.008;13.658;2023-08-17T04:06:48;13.57;;;12.18;;
64291;SDS011;50628;51.008;13.658;2023-08-17T04:11:51;13.35;;;12.07;;
64291;SDS011;50628;51.008;13.658;2023-08-17T04:16:55;15.30;;;13.48;;
64291;SDS011;50628;51.008;13.658;2023-08-17T04:21:58;14.85;;;13.25;;
64291;SDS011;50628;51.008;13.658;2023-08-17T04:27:01;18.00;;;12.80;;
64291;SDS011;50628;51.008;13.658;2023-08-17T04:32:04;14.50;;;13.13;;
64291;SDS011;50628;51.008;13.658;2023-08-17T04:37:06;15.00;;;13.40;;
64291;SDS011;50628;51.008;13.658;2023-08-17T04:42:09;16.90;;;13.60;;
64291;SDS011;50628;51.008;13.658;2023-08-17T04:47:13;14.98;;;12.57;;
64291;SDS011;50628;51.008;13.658;2023-08-17T04:52:16;13.18;;;11.95;;
64291;SDS011;50628;51.008;13.658;2023-08-17T04:57:19;17.05;;;13.15;;
64291;SDS011;50628;51.008;13.658;2023-08-17T05:02:21;15.27;;;13.35;;
64291;SDS011;50628;51.008;13.658;2023-08-17T05:07:23;18.02;;;13.32;;
64291;SDS011;50628;51.008;13.658;2023-08-17T05:12:29;16.08;;;13.27;;
64291;SDS011;50628;51.008;13.658;2023-08-17T05:17:31;17.25;;;13.60;;
64291;SDS011;50628;51.008;13.658;2023-08-17T05:22:33;17.27;;;13.15;;
64291;SDS011;50628;51.008;13.658;2023-08-17T05:27:36;17.88;;;13.32;;
64291;SDS011;50628;51.008;13.658;2023-08-17T05:32:39;16.15;;;14.35;;
64291;SDS011;50628;51.008;13.658;2023-08-17T05:37:42;16.65;;;14.70;;
64291;SDS011;50628;51.008;13.658;2023-08-17T05:42:45;17.42;;;13.05;;
64291;SDS011;50628;51.008;13.658;2023-08-17T05:47:47;16.80;;;13.75;;
64291;SDS011;50628;51.008;13.658;2023-08-17T05:52:48;15.85;;;14.25;;
64291;SDS011;50628;51.008;13.658;2023-08-17T05:57:52;15.20;;;13.57;;
64291;SDS011;50628;51.008;13.658;2023-08-17T06:02:53;14.85;;;13.43;;
64291;SDS011;50628;51.008;13.658;2023-08-17T06:08:01;17.00;;;15.30;;
64291;SDS011;50628;51.008;13.658;2023-08-17T06:13:04;22.67;;;14.07;;
64291;SDS011;50628;51.008;13.658;2023-08-17T06:18:06;17.08;;;15.27;;
64291;SDS011;50628;51.008;13.658;2023-08-17T06:23:08;16.58;;;14.98;;
64291;SDS011;50628;51.008;13.658;2023-08-17T06:28:11;16.17;;;13.77;;
64291;SDS011;50628;51.008;13.658;2023-08-17T06:33:13;18.10;;;13.82;;
64291;SDS011;50628;51.008;13.658;2023-08-17T06:38:15;14.63;;;13.02;;
64291;SDS011;50628;51.008;13.658;2023-08-17T06:43:18;14.75;;;13.20;;
64291;SDS011;50628;51.008;13.658;2023-08-17T06:48:20;16.17;;;14.52;;
64291;SDS011;50628;51.008;13.658;2023-08-17T06:53:22;13.55;;;12.35;;
64291;SDS011;50628;51.008;13.658;2023-08-17T06:58:25;14.75;;;12.77;;
64291;SDS011;50628;51.008;13.658;2023-08-17T07:03:27;16.80;;;14.30;;
64291;SDS011;50628;51.008;13.658;2023-08-17T07:08:29;18.70;;;13.02;;
64291;SDS011;50628;51.008;13.658;2023-08-17T07:13:32;14.63;;;12.10;;
64291;SDS011;50628;51.008;13.658;2023-08-17T07:18:34;13.45;;;12.25;;
64291;SDS011;50628;51.008;13.658;2023-08-17T07:23:36;14.43;;;13.13;;
64291;SDS011;50628;51.008;13.658;2023-08-17T07:28:39;15.80;;;14.18;;
64291;SDS011;50628;51.008;13.658;2023-08-17T07:33:41;13.27;;;12.02;;
64291;SDS011;50628;51.008;13.658;2023-08-17T07:38:43;13.57;;;11.95;;
64291;SDS011;50628;51.008;13.658;2023-08-17T07:43:46;12.68;;;11.63;;
64291;SDS011;50628;51.008;13.658;2023-08-17T07:48:48;27.63;;;13.27;;
64291;SDS011;50628;51.008;13.658;2023-08-17T07:53:50;16.63;;;12.63;;
64291;SDS011;50628;51.008;13.658;2023-08-17T07:58:54;12.93;;;11.70;;
64291;SDS011;50628;51.008;13.658;2023-08-17T08:03:56;14.00;;;12.65;;
64291;SDS011;50628;51.008;13.658;2023-08-17T08:08:58;18.58;;;13.25;;
64291;SDS011;50628;51.008;13.658;2023-08-17T08:14:01;15.70;;;12.98;;
64291;SDS011;50628;51.008;13.658;2023-08-17T08:19:03;13.93;;;12.48;;
64291;SDS011;50628;51.008;13.658;2023-08-17T08:24:06;17.70;;;13.18;;
64291;SDS011;50628;51.008;13.658;2023-08-17T08:29:09;14.18;;;12.80;;
64291;SDS011;50628;51.008;13.658;2023-08-17T08:34:11;15.18;;;12.38;;
64291;SDS011;50628;51.008;13.658;2023-08-17T08:39:13;12.40;;;11.23;;
64291;SDS011;50628;51.008;13.658;2023-08-17T08:44:16;12.90;;;11.70;;
64291;SDS011;50628;51.008;13.658;2023-08-17T08:49:19;12.35;;;11.15;;
64291;SDS011;50628;51.008;13.658;2023-08-17T08:54:24;14.05;;;11.73;;
64291;SDS011;50628;51.008;13.658;2023-08-17T08:59:28;11.40;;;10.30;;
64291;SDS011;50628;51.008;13.658;2023-08-17T09:04:32;12.30;;;10.48;;
64291;SDS011;50628;51.008;13.658;2023-08-17T09:09:33;15.43;;;11.73;;
64291;SDS011;50628;51.008;13.658;2023-08-17T09:14:38;7.82;;;7.03;;
64291;SDS011;50628;51.008;13.658;2023-08-17T09:19:41;9.45;;;7.97;;
64291;SDS011;50628;51.008;13.658;2023-08-17T09:24:48;9.25;;;7.47;;
64291;SDS011;50628;51.008;13.658;2023-08-17T09:29:51;9.68;;;7.82;;
64291;SDS011;50628;51.008;13.658;2023-08-17T09:34:53;9.18;;;8.13;;
64291;SDS011;50628;51.008;13.658;2023-08-17T09:39:55;9.27;;;8.30;;
64291;SDS011;50628;51.008;13.658;2023-08-17T09:44:59;9.07;;;7.57;;
64291;SDS011;50628;51.008;13.658;2023-08-17T09:50:02;10.70;;;7.75;;
64291;SDS011;50628;51.008;13.658;2023-08-17T09:55:07;9.35;;;7.20;;
64291;SDS011;50628;51.008;13.658;2023-08-17T10:00:14;8.38;;;7.22;;
64291;SDS011;50628;51.008;13.658;2023-08-17T10:05:17;9.57;;;7.68;;
64291;SDS011;50628;51.008;13.658;2023-08-17T10:10:21;8.30;;;6.60;;
64291;SDS011;50628;51.008;13.658;2023-08-17T10:15:28;10.70;;;7.38;;
64291;SDS011;50628;51.008;13.658;2023-08-17T10:20:31;15.98;;;7.70;;
64291;SDS011;50628;51.008;13.658;2023-08-17T10:25:36;7.35;;;6.60;;
64291;SDS011;50628;51.008;13.658;2023-08-17T10:30:41;10.75;;;6.70;;
64291;SDS011;50628;51.008;13.658;2023-08-17T10:35:43;8.88;;;7.97;;
64291;SDS011;50628;51.008;13.658;2023-08-17T10:40:47;11.43;;;7.10;;
64291;SDS011;50628;51.008;13.658;2023-08-17T10:46:16;11.02;;;6.90;;
64291;SDS011;50628;51.008;13.658;2023-08-17T10:51:19;9.68;;;6.88;;
64291;SDS011;50628;51.008;13.658;2023-08-17T10:56:26;10.75;;;6.53;;
64291;SDS011;50628;51.008;13.658;2023-08-17T11:01:34;10.10;;;7.20;;
64291;SDS011;50628;51.008;13.658;2023-08-17T11:06:37;7.72;;;6.50;;
64291;SDS011;50628;51.008;13.658;2023-08-17T11:11:39;9.90;;;6.40;;
64291;SDS011;50628;51.008;13.658;2023-08-17T11:16:42;7.65;;;6.88;;
64291;SDS011;50628;51.008;13.658;2023-08-17T11:21:44;8.65;;;6.90;;
64291;SDS011;50628;51.008;13.658;2023-08-17T11:26:46;6.80;;;6.10;;
64291;SDS011;50628;51.008;13.658;2023-08-17T11:31:51;6.90;;;6.20;;
64291;SDS011;50628;51.008;13.658;2023-08-17T11:36:52;6.63;;;6.03;;
64291;SDS011;50628;51.008;13.658;2023-08-17T11:41:54;10.32;;;5.80;;
64291;SDS011;50628;51.008;13.658;2023-08-17T11:46:58;11.60;;;6.88;;
64291;SDS011;50628;51.008;13.658;2023-08-17T11:52:00;8.80;;;6.50;;
64291;SDS011;50628;51.008;13.658;2023-08-17T11:57:02;7.32;;;6.20;;
64291;SDS011;50628;51.008;13.658;2023-08-17T12:02:05;7.68;;;6.85;;
64291;SDS011;50628;51.008;13.658;2023-08-17T12:07:08;9.90;;;6.32;;
64291;SDS011;50628;51.008;13.658;2023-08-17T12:12:10;9.15;;;6.13;;
64291;SDS011;50628;51.008;13.658;2023-08-17T12:17:15;6.22;;;5.63;;
64291;SDS011;50628;51.008;13.658;2023-08-17T12:22:17;9.80;;;6.28;;
64291;SDS011;50628;51.008;13.658;2023-08-17T12:27:19;7.15;;;6.03;;
64291;SDS011;50628;51.008;13.658;2023-08-17T12:32:25;9.48;;;5.88;;
64291;SDS011;50628;51.008;13.658;2023-08-17T12:37:27;13.10;;;5.90;;
64291;SDS011;50628;51.008;13.658;2023-08-17T12:42:29;6.55;;;5.90;;
64291;SDS011;50628;51.008;13.658;2023-08-17T12:47:32;6.25;;;5.47;;
64291;SDS011;50628;51.008;13.658;2023-08-17T12:52:34;11.52;;;6.20;;
64291;SDS011;50628;51.008;13.658;2023-08-17T12:57:36;5.93;;;4.80;;
64291;SDS011;50628;51.008;13.658;2023-08-17T13:02:39;6.57;;;4.30;;
64291;SDS011;50628;51.008;13.658;2023-08-17T13:07:41;5.32;;;3.97;;
64291;SDS011;50628;51.008;13.658;2023-08-17T13:12:43;7.43;;;3.75;;
64291;SDS011;50628;51.008;13.658;2023-08-17T13:17:46;10.52;;;4.35;;
64291;SDS011;50628;51.008;13.658;2023-08-17T13:22:48;6.32;;;4.15;;
64291;SDS011;50628;51.008;13.658;2023-08-17T13:27:50;7.47;;;4.20;;
64291;SDS011;50628;51.008;13.658;2023-08-17T13:32:53;10.15;;;4.80;;
64291;SDS011;50628;51.008;13.658;2023-08-17T13:37:55;6.10;;;4.65;;
64291;SDS011;50628;51.008;13.658;2023-08-17T13:42:57;19.90;;;4.55;;
64291;SDS011;50628;51.008;13.658;2023-08-17T13:48:02;7.90;;;6.90;;
64291;SDS011;50628;51.008;13.658;2023-08-17T13:53:04;5.45;;;4.95;;
64291;SDS011;50628;51.008;13.658;2023-08-17T13:58:06;8.50;;;4.40;;
64291;SDS011;50628;51.008;13.658;2023-08-17T14:03:11;6.47;;;4.75;;
64291;SDS011;50628;51.008;13.658;2023-08-17T14:08:13;4.70;;;4.25;;
64291;SDS011;50628;51.008;13.658;2023-08-17T14:13:15;4.78;;;3.75;;
64291;SDS011;50628;51.008;13.658;2023-08-17T14:18:18;6.45;;;4.60;;
64291;SDS011;50628;51.008;13.658;2023-08-17T14:23:20;6.63;;;4.00;;
64291;SDS011;50628;51.008;13.658;2023-08-17T14:28:22;6.93;;;4.38;;
64291;SDS011;50628;51.008;13.658;2023-08-17T14:33:25;5.35;;;3.28;;
64291;SDS011;50628;51.008;13.658;2023-08-17T14:38:27;8.73;;;4.22;;
64291;SDS011;50628;51.008;13.658;2023-08-17T14:43:29;4.97;;;3.72;;
64291;SDS011;50628;51.008;13.658;2023-08-17T14:48:32;10.32;;;4.00;;
64291;SDS011;50628;51.008;13.658;2023-08-17T14:53:34;8.20;;;4.10;;
64291;SDS011;50628;51.008;13.658;2023-08-17T14:58:36;7.47;;;4.25;;
64291;SDS011;50628;51.008;13.658;2023-08-17T15:03:39;9.05;;;4.72;;
64291;SDS011;50628;51.008;13.658;2023-08-17T15:08:41;15.35;;;4.18;;
64291;SDS011;50628;51.008;13.658;2023-08-17T15:13:43;11.95;;;6.60;;
64291;SDS011;50628;51.008;13.658;2023-08-17T15:18:46;6.72;;;4.35;;
64291;SDS011;50628;51.008;13.658;2023-08-17T15:23:48;7.43;;;4.55;;
64291;SDS011;50628;51.008;13.658;2023-08-17T15:28:50;11.02;;;4.63;;
64291;SDS011;50628;51.008;13.658;2023-08-17T15:33:53;9.40;;;4.78;;
64291;SDS011;50628;51.008;13.658;2023-08-17T15:38:55;8.07;;;4.97;;
64291;SDS011;50628;51.008;13.658;2023-08-17T15:43:57;11.98;;;5.40;;
64291;SDS011;50628;51.008;13.658;2023-08-17T15:49:00;9.90;;;5.07;;
64291;SDS011;50628;51.008;13.658;2023-08-17T15:54:02;6.15;;;5.22;;
64291;SDS011;50628;51.008;13.658;2023-08-17T15:59:04;6.13;;;4.93;;
64291;SDS011;50628;51.008;13.658;2023-08-17T16:04:07;8.32;;;5.35;;
64291;SDS011;50628;51.008;13.658;2023-08-17T16:09:09;9.18;;;5.22;;
64291;SDS011;50628;51.008;13.658;2023-08-17T16:14:11;8.25;;;6.50;;
64291;SDS011;50628;51.008;13.658;2023-08-17T16:19:14;11.25;;;5.80;;
64291;SDS011;50628;51.008;13.658;2023-08-17T16:24:17;14.90;;;6.55;;
64291;SDS011;50628;51.008;13.658;2023-08-17T16:29:19;8.63;;;7.10;;
64291;SDS011;50628;51.008;13.658;2023-08-17T16:34:22;16.45;;;7.13;;
64291;SDS011;50628;51.008;13.658;2023-08-17T16:39:24;12.20;;;6.70;;
64291;SDS011;50628;51.008;13.658;2023-08-17T16:44:28;13.05;;;6.85;;
64291;SDS011;50628;51.008;13.658;2023-08-17T16:49:31;11.35;;;6.53;;
64291;SDS011;50628;51.008;13.658;2023-08-17T16:54:33;9.90;;;6.38;;
64291;SDS011;50628;51.008;13.658;2023-08-17T16:59:34;8.27;;;6.45;;
64291;SDS011;50628;51.008;13.658;2023-08-17T17:04:38;8.73;;;6.68;;
64291;SDS011;50628;51.008;13.658;2023-08-17T17:09:40;7.82;;;5.82;;
64291;SDS011;50628;51.008;13.658;2023-08-17T17:14:42;9.93;;;6.90;;
64291;SDS011;50628;51.008;13.658;2023-08-17T17:19:45;19.48;;;7.63;;
64291;SDS011;50628;51.008;13.658;2023-08-17T17:24:47;8.15;;;6.18;;
64291;SDS011;50628;51.008;13.658;2023-08-17T17:29:49;7.60;;;6.90;;
64291;SDS011;50628;51.008;13.658;2023-08-17T17:34:52;12.52;;;7.20;;
64291;SDS011;50628;51.008;13.658;2023-08-17T17:39:54;11.75;;;6.78;;
64291;SDS011;50628;51.008;13.658;2023-08-17T17:44:56;14.25;;;6.88;;
64291;SDS011;50628;51.008;13.658;2023-08-17T17:49:59;8.85;;;6.50;;
64291;SDS011;50628;51.008;13.658;2023-08-17T17:55:01;11.63;;;7.00;;
64291;SDS011;50628;51.008;13.658;2023-08-17T18:00:04;7.28;;;6.57;;
64291;SDS011;50628;51.008;13.658;2023-08-17T18:05:14;7.72;;;6.95;;
64291;SDS011;50628;51.008;13.658;2023-08-17T18:10:15;9.40;;;6.78;;
64291;SDS011;50628;51.008;13.658;2023-08-17T18:15:17;10.95;;;7.22;;
64291;SDS011;50628;51.008;13.658;2023-08-17T18:20:21;9.38;;;7.43;;
64291;SDS011;50628;51.008;13.658;2023-08-17T18:25:22;10.98;;;8.20;;
64291;SDS011;50628;51.008;13.658;2023-08-17T18:30:25;10.10;;;7.82;;
64291;SDS011;50628;51.008;13.658;2023-08-17T18:35:28;9.77;;;7.72;;
64291;SDS011;50628;51.008;13.658;2023-08-17T18:40:30;10.63;;;7.18;;
64291;SDS011;50628;51.008;13.658;2023-08-17T18:45:32;8.73;;;7.13;;
64291;SDS011;50628;51.008;13.658;2023-08-17T18:50:36;11.55;;;7.20;;
64291;SDS011;50628;51.008;13.658;2023-08-17T18:55:38;12.15;;;8.10;;
64291;SDS011;50628;51.008;13.658;2023-08-17T19:00:40;12.82;;;7.80;;
64291;SDS011;50628;51.008;13.658;2023-08-17T19:05:43;14.15;;;7.97;;
64291;SDS011;50628;51.008;13.658;2023-08-17T19:10:45;7.97;;;7.05;;
64291;SDS011;50628;51.008;13.658;2023-08-17T19:15:47;10.38;;;8.20;;
64291;SDS011;50628;51.008;13.658;2023-08-17T19:20:50;8.85;;;8.05;;
64291;SDS011;50628;51.008;13.658;2023-08-17T19:25:52;10.40;;;8.45;;
64291;SDS011;50628;51.008;13.658;2023-08-17T19:30:54;13.23;;;8.82;;
64291;SDS011;50628;51.008;13.658;2023-08-17T19:35:57;9.20;;;8.30;;
64291;SDS011;50628;51.008;13.658;2023-08-17T19:40:59;11.05;;;8.85;;
64291;SDS011;50628;51.008;13.658;2023-08-17T19:46:01;15.48;;;7.97;;
64291;SDS011;50628;51.008;13.658;2023-08-17T19:51:04;10.30;;;9.32;;
64291;SDS011;50628;51.008;13.658;2023-08-17T19:56:06;13.60;;;9.18;;
64291;SDS011;50628;51.008;13.658;2023-08-17T20:01:09;17.45;;;8.60;;
64291;SDS011;50628;51.008;13.658;2023-08-17T20:06:13;9.02;;;8.13;;
64291;SDS011;50628;51.008;13.658;2023-08-17T20:11:15;9.27;;;8.43;;
64291;SDS011;50628;51.008;13.658;2023-08-17T20:16:17;10.00;;;8.20;;
64291;SDS011;50628;51.008;13.658;2023-08-17T20:21:20;9.18;;;7.60;;
64291;SDS011;50628;51.008;13.658;2023-08-17T20:26:22;12.02;;;7.88;;
64291;SDS011;50628;51.008;13.658;2023-08-17T20:31:24;9.82;;;7.78;;
64291;SDS011;50628;51.008;13.658;2023-08-17T20:36:28;10.30;;;6.35;;
64291;SDS011;50628;51.008;13.658;2023-08-17T20:41:30;12.25;;;8.65;;
64291;SDS011;50628;51.008;13.658;2023-08-17T20:46:32;8.20;;;6.80;;
64291;SDS011;50628;51.008;13.658;2023-08-17T20:51:36;8.13;;;7.18;;
64291;SDS011;50628;51.008;13.658;2023-08-17T20:56:38;6.75;;;5.78;;
64291;SDS011;50628;51.008;13.658;2023-08-17T21:01:39;7.75;;;6.40;;
64291;SDS011;50628;51.008;13.658;2023-08-17T21:06:43;7.40;;;5.40;;
64291;SDS011;50628;51.008;13.658;2023-08-17T21:11:45;5.82;;;5.20;;
64291;SDS011;50628;51.008;13.658;2023-08-17T21:16:46;7.32;;;5.75;;
64291;SDS011;50628;51.008;13.658;2023-08-17T21:21:50;6.07;;;5.47;;
64291;SDS011;50628;51.008;13.658;2023-08-17T21:26:51;7.47;;;6.80;;
64291;SDS011;50628;51.008;13.658;2023-08-17T21:31:53;10.35;;;5.78;;
64291;SDS011;50628;51.008;13.658;2023-08-17T21:36:57;6.68;;;5.85;;
64291;SDS011;50628;51.008;13.658;2023-08-17T21:41:58;7.75;;;6.15;;
64291;SDS011;50628;51.008;13.658;2023-08-17T21:47:00;9.57;;;6.10;;
64291;SDS011;50628;51.008;13.658;2023-08-17T21:52:03;12.60;;;6.93;;
64291;SDS011;50628;51.008;13.658;2023-08-17T21:57:05;6.70;;;5.82;;
64291;SDS011;50628;51.008;13.658;2023-08-17T22:02:07;9.77;;;6.70;;
64291;SDS011;50628;51.008;13.658;2023-08-17T22:07:11;6.65;;;6.15;;
64291;SDS011;50628;51.008;13.658;2023-08-17T22:12:12;8.35;;;6.40;;
64291;SDS011;50628;51.008;13.658;2023-08-17T22:17:14;12.35;;;6.45;;
64291;SDS011;50628;51.008;13.658;2023-08-17T22:22:17;6.90;;;6.25;;
64291;SDS011;50628;51.008;13.658;2023-08-17T22:27:19;8.82;;;6.78;;
64291;SDS011;50628;51.008;13.658;2023-08-17T22:32:21;8.48;;;6.50;;
64291;SDS011;50628;51.008;13.658;2023-08-17T22:37:24;7.18;;;6.47;;
64291;SDS011;50628;51.008;13.658;2023-08-17T22:42:26;6.40;;;5.82;;
64291;SDS011;50628;51.008;13.658;2023-08-17T22:47:29;9.05;;;6.82;;
64291;SDS011;50628;51.008;13.658;2023-08-17T22:52:33;7.68;;;6.95;;
64291;SDS011;50628;51.008;13.658;2023-08-17T22:57:34;10.68;;;6.90;;
64291;SDS011;50628;51.008;13.658;2023-08-17T23:02:36;7.75;;;6.97;;
64291;SDS011;50628;51.008;13.658;2023-08-17T23:07:39;9.88;;;7.80;;
64291;SDS011;50628;51.008;13.658;2023-08-17T23:12:41;9.65;;;8.10;;
64291;SDS011;50628;51.008;13.658;2023-08-17T23:17:43;8.13;;;7.40;;
64291;SDS011;50628;51.008;13.658;2023-08-17T23:22:47;9.70;;;7.57;;
64291;SDS011;50628;51.008;13.658;2023-08-17T23:27:48;9.90;;;6.88;;
64291;SDS011;50628;51.008;13.658;2023-08-17T23:32:50;8.50;;;7.50;;
64291;SDS011;50628;51.008;13.658;2023-08-17T23:37:56;10.40;;;7.93;;
64291;SDS011;50628;51.008;13.658;2023-08-17T23:42:58;8.50;;;7.70;;
64291;SDS011;50628;51.008;13.658;2023-08-17T23:48:00;8.68;;;7.82;;
64291;SDS011;50628;51.008;13.658;2023-08-17T23:53:04;8.70;;;7.82;;
64291;SDS011;50628;51.008;13.658;2023-08-17T23:58:06;10.13;;;8.20;;
